sensor_id;sensor_type;location;lat;lon;timestamp;P1;durP1;ratioP1;P2;durP2;ratioP2
21352;SDS011;10834;52.268;6.770;2022-08-07T00:01:49;2.35;;;2.15;;
21352;SDS011;10834;52.268;6.770;2022-08-07T00:04:35;3.00;;;2.70;;
21352;SDS011;10834;52.268;6.770;2022-08-07T00:07:21;2.88;;;2.10;;
21352;SDS011;10834;52.268;6.770;2022-08-07T00:10:07;2.67;;;2.47;;
21352;SDS011;10834;52.268;6.770;2022-08-07T00:12:54;2.10;;;1.90;;
21352;SDS011;10834;52.268;6.770;2022-08-07T00:15:40;2.17;;;1.98;;
21352;SDS011;10834;52.268;6.770;2022-08-07T00:18:27;2.50;;;2.30;;
21352;SDS011;10834;52.268;6.770;2022-08-07T00:21:13;2.60;;;2.40;;
21352;SDS011;10834;52.268;6.770;2022-08-07T00:23:59;2.28;;;2.10;;
21352;SDS011;10834;52.268;6.770;2022-08-07T00:26:46;2.30;;;2.10;;
21352;SDS011;10834;52.268;6.770;2022-08-07T00:29:32;2.10;;;2.00;;
21352;SDS011;10834;52.268;6.770;2022-08-07T00:32:18;2.78;;;2.58;;
21352;SDS011;10834;52.268;6.770;2022-08-07T00:35:04;2.72;;;2.53;;
21352;SDS011;10834;52.268;6.770;2022-08-07T00:37:51;2.53;;;2.30;;
21352;SDS011;10834;52.268;6.770;2022-08-07T00:40:37;2.60;;;2.40;;
21352;SDS011;10834;52.268;6.770;2022-08-07T00:43:23;2.30;;;2.10;;
21352;SDS011;10834;52.268;6.770;2022-08-07T00:46:09;2.55;;;2.35;;
21352;SDS011;10834;52.268;6.770;2022-08-07T00:48:55;2.88;;;2.67;;
21352;SDS011;10834;52.268;6.770;2022-08-07T00:51:45;2.58;;;2.38;;
21352;SDS011;10834;52.268;6.770;2022-08-07T00:54:31;2.67;;;2.45;;
21352;SDS011;10834;52.268;6.770;2022-08-07T00:57:18;2.50;;;2.30;;
21352;SDS011;10834;52.268;6.770;2022-08-07T01:00:06;2.42;;;2.15;;
21352;SDS011;10834;52.268;6.770;2022-08-07T01:02:52;2.70;;;2.50;;
21352;SDS011;10834;52.268;6.770;2022-08-07T01:05:39;2.65;;;2.45;;
21352;SDS011;10834;52.268;6.770;2022-08-07T01:08:26;2.47;;;2.28;;
21352;SDS011;10834;52.268;6.770;2022-08-07T01:11:13;2.55;;;2.35;;
21352;SDS011;10834;52.268;6.770;2022-08-07T01:14:00;2.67;;;2.47;;
21352;SDS011;10834;52.268;6.770;2022-08-07T01:16:46;3.00;;;2.80;;
21352;SDS011;10834;52.268;6.770;2022-08-07T01:19:32;2.92;;;2.60;;
21352;SDS011;10834;52.268;6.770;2022-08-07T01:22:19;2.80;;;2.60;;
21352;SDS011;10834;52.268;6.770;2022-08-07T01:25:07;2.75;;;2.55;;
21352;SDS011;10834;52.268;6.770;2022-08-07T01:27:55;2.92;;;2.72;;
21352;SDS011;10834;52.268;6.770;2022-08-07T01:30:41;2.90;;;2.70;;
21352;SDS011;10834;52.268;6.770;2022-08-07T01:33:29;3.25;;;2.67;;
21352;SDS011;10834;52.268;6.770;2022-08-07T01:36:15;2.58;;;2.38;;
21352;SDS011;10834;52.268;6.770;2022-08-07T01:39:02;2.95;;;2.75;;
21352;SDS011;10834;52.268;6.770;2022-08-07T01:41:48;2.95;;;2.65;;
21352;SDS011;10834;52.268;6.770;2022-08-07T01:44:35;2.25;;;2.15;;
21352;SDS011;10834;52.268;6.770;2022-08-07T01:47:21;2.88;;;2.67;;
21352;SDS011;10834;52.268;6.770;2022-08-07T01:50:08;2.75;;;2.55;;
21352;SDS011;10834;52.268;6.770;2022-08-07T01:52:55;2.78;;;2.58;;
21352;SDS011;10834;52.268;6.770;2022-08-07T01:55:44;3.00;;;2.80;;
21352;SDS011;10834;52.268;6.770;2022-08-07T01:58:36;2.97;;;2.40;;
21352;SDS011;10834;52.268;6.770;2022-08-07T02:01:27;2.85;;;2.65;;
21352;SDS011;10834;52.268;6.770;2022-08-07T02:04:21;2.83;;;2.63;;
21352;SDS011;10834;52.268;6.770;2022-08-07T02:07:15;2.78;;;2.58;;
21352;SDS011;10834;52.268;6.770;2022-08-07T02:10:04;2.78;;;2.55;;
21352;SDS011;10834;52.268;6.770;2022-08-07T02:12:52;2.85;;;2.65;;
21352;SDS011;10834;52.268;6.770;2022-08-07T02:15:43;2.70;;;2.50;;
21352;SDS011;10834;52.268;6.770;2022-08-07T02:18:30;2.92;;;2.70;;
21352;SDS011;10834;52.268;6.770;2022-08-07T02:21:18;2.88;;;2.67;;
21352;SDS011;10834;52.268;6.770;2022-08-07T02:24:05;2.75;;;2.55;;
21352;SDS011;10834;52.268;6.770;2022-08-07T02:26:52;2.70;;;2.50;;
21352;SDS011;10834;52.268;6.770;2022-08-07T02:29:38;3.10;;;2.83;;
21352;SDS011;10834;52.268;6.770;2022-08-07T02:32:26;2.95;;;2.75;;
21352;SDS011;10834;52.268;6.770;2022-08-07T02:35:12;3.47;;;3.17;;
21352;SDS011;10834;52.268;6.770;2022-08-07T02:38:03;2.65;;;2.45;;
21352;SDS011;10834;52.268;6.770;2022-08-07T02:40:51;3.17;;;2.92;;
21352;SDS011;10834;52.268;6.770;2022-08-07T02:43:40;2.78;;;2.58;;
21352;SDS011;10834;52.268;6.770;2022-08-07T02:46:27;2.22;;;2.13;;
21352;SDS011;10834;52.268;6.770;2022-08-07T02:49:15;3.30;;;3.00;;
21352;SDS011;10834;52.268;6.770;2022-08-07T02:52:02;3.08;;;2.88;;
21352;SDS011;10834;52.268;6.770;2022-08-07T02:54:49;2.88;;;2.67;;
21352;SDS011;10834;52.268;6.770;2022-08-07T02:57:36;3.42;;;3.13;;
21352;SDS011;10834;52.268;6.770;2022-08-07T03:00:24;2.83;;;2.63;;
21352;SDS011;10834;52.268;6.770;2022-08-07T03:03:13;2.83;;;2.63;;
21352;SDS011;10834;52.268;6.770;2022-08-07T03:06:01;3.13;;;2.90;;
21352;SDS011;10834;52.268;6.770;2022-08-07T03:08:48;2.78;;;2.58;;
21352;SDS011;10834;52.268;6.770;2022-08-07T03:11:36;2.97;;;2.78;;
21352;SDS011;10834;52.268;6.770;2022-08-07T03:14:22;3.10;;;2.85;;
21352;SDS011;10834;52.268;6.770;2022-08-07T03:17:09;3.05;;;2.83;;
21352;SDS011;10834;52.268;6.770;2022-08-07T03:19:56;3.92;;;2.92;;
21352;SDS011;10834;52.268;6.770;2022-08-07T03:22:42;3.13;;;2.83;;
21352;SDS011;10834;52.268;6.770;2022-08-07T03:25:31;3.15;;;2.95;;
21352;SDS011;10834;52.268;6.770;2022-08-07T03:28:19;3.25;;;2.88;;
21352;SDS011;10834;52.268;6.770;2022-08-07T03:31:06;3.53;;;3.22;;
21352;SDS011;10834;52.268;6.770;2022-08-07T03:34:05;3.13;;;2.83;;
21352;SDS011;10834;52.268;6.770;2022-08-07T03:36:54;3.33;;;3.08;;
21352;SDS011;10834;52.268;6.770;2022-08-07T03:39:41;3.20;;;2.90;;
21352;SDS011;10834;52.268;6.770;2022-08-07T03:42:27;3.40;;;3.10;;
21352;SDS011;10834;52.268;6.770;2022-08-07T03:45:14;4.18;;;3.03;;
21352;SDS011;10834;52.268;6.770;2022-08-07T03:48:00;3.38;;;3.08;;
21352;SDS011;10834;52.268;6.770;2022-08-07T03:50:47;3.22;;;2.92;;
21352;SDS011;10834;52.268;6.770;2022-08-07T03:53:34;3.53;;;3.22;;
21352;SDS011;10834;52.268;6.770;2022-08-07T03:56:22;2.70;;;2.50;;
21352;SDS011;10834;52.268;6.770;2022-08-07T03:59:11;3.08;;;2.85;;
21352;SDS011;10834;52.268;6.770;2022-08-07T04:01:58;3.40;;;3.10;;
21352;SDS011;10834;52.268;6.770;2022-08-07T04:04:45;3.38;;;3.17;;
21352;SDS011;10834;52.268;6.770;2022-08-07T04:07:31;3.40;;;3.00;;
21352;SDS011;10834;52.268;6.770;2022-08-07T04:10:18;3.00;;;2.80;;
21352;SDS011;10834;52.268;6.770;2022-08-07T04:13:04;3.20;;;2.90;;
21352;SDS011;10834;52.268;6.770;2022-08-07T04:15:52;3.30;;;3.00;;
21352;SDS011;10834;52.268;6.770;2022-08-07T04:18:38;3.65;;;3.35;;
21352;SDS011;10834;52.268;6.770;2022-08-07T04:21:24;3.80;;;2.97;;
21352;SDS011;10834;52.268;6.770;2022-08-07T04:24:10;3.67;;;3.38;;
21352;SDS011;10834;52.268;6.770;2022-08-07T04:26:57;3.65;;;3.30;;
21352;SDS011;10834;52.268;6.770;2022-08-07T04:29:44;3.50;;;3.20;;
21352;SDS011;10834;52.268;6.770;2022-08-07T04:32:30;3.70;;;3.40;;
21352;SDS011;10834;52.268;6.770;2022-08-07T04:35:18;3.05;;;2.80;;
21352;SDS011;10834;52.268;6.770;2022-08-07T04:38:07;3.17;;;2.95;;
21352;SDS011;10834;52.268;6.770;2022-08-07T04:40:54;3.17;;;2.88;;
21352;SDS011;10834;52.268;6.770;2022-08-07T04:43:40;4.10;;;3.75;;
21352;SDS011;10834;52.268;6.770;2022-08-07T04:49:39;3.53;;;3.22;;
21352;SDS011;10834;52.268;6.770;2022-08-07T04:52:45;3.33;;;3.03;;
21352;SDS011;10834;52.268;6.770;2022-08-07T04:55:48;3.25;;;2.95;;
21352;SDS011;10834;52.268;6.770;2022-08-07T05:01:45;3.83;;;3.15;;
21352;SDS011;10834;52.268;6.770;2022-08-07T05:13:29;3.72;;;3.28;;
21352;SDS011;10834;52.268;6.770;2022-08-07T05:16:21;3.72;;;3.42;;
21352;SDS011;10834;52.268;6.770;2022-08-07T05:19:12;4.00;;;3.70;;
21352;SDS011;10834;52.268;6.770;2022-08-07T05:22:01;4.38;;;3.97;;
21352;SDS011;10834;52.268;6.770;2022-08-07T05:24:48;3.50;;;3.20;;
21352;SDS011;10834;52.268;6.770;2022-08-07T05:27:39;3.55;;;3.25;;
21352;SDS011;10834;52.268;6.770;2022-08-07T05:30:27;3.60;;;3.30;;
21352;SDS011;10834;52.268;6.770;2022-08-07T05:33:14;3.72;;;3.42;;
21352;SDS011;10834;52.268;6.770;2022-08-07T05:36:01;3.13;;;2.92;;
21352;SDS011;10834;52.268;6.770;2022-08-07T05:38:49;3.85;;;3.55;;
21352;SDS011;10834;52.268;6.770;2022-08-07T05:41:37;3.30;;;3.10;;
21352;SDS011;10834;52.268;6.770;2022-08-07T05:44:24;3.50;;;3.20;;
21352;SDS011;10834;52.268;6.770;2022-08-07T05:47:11;4.25;;;3.85;;
21352;SDS011;10834;52.268;6.770;2022-08-07T05:49:58;3.88;;;3.58;;
21352;SDS011;10834;52.268;6.770;2022-08-07T05:52:46;4.43;;;4.03;;
21352;SDS011;10834;52.268;6.770;2022-08-07T05:55:33;3.35;;;3.05;;
21352;SDS011;10834;52.268;6.770;2022-08-07T05:58:20;3.50;;;3.20;;
21352;SDS011;10834;52.268;6.770;2022-08-07T06:01:09;3.78;;;3.40;;
21352;SDS011;10834;52.268;6.770;2022-08-07T06:03:56;4.38;;;4.05;;
21352;SDS011;10834;52.268;6.770;2022-08-07T06:06:43;4.53;;;4.13;;
21352;SDS011;10834;52.268;6.770;2022-08-07T06:09:29;4.47;;;4.07;;
21352;SDS011;10834;52.268;6.770;2022-08-07T06:12:16;3.13;;;2.92;;
21352;SDS011;10834;52.268;6.770;2022-08-07T06:15:02;3.70;;;3.40;;
21352;SDS011;10834;52.268;6.770;2022-08-07T06:17:49;3.85;;;3.55;;
21352;SDS011;10834;52.268;6.770;2022-08-07T06:20:36;5.15;;;3.55;;
21352;SDS011;10834;52.268;6.770;2022-08-07T06:23:24;4.35;;;3.80;;
21352;SDS011;10834;52.268;6.770;2022-08-07T06:26:10;3.90;;;3.60;;
21352;SDS011;10834;52.268;6.770;2022-08-07T06:28:58;3.50;;;3.20;;
21352;SDS011;10834;52.268;6.770;2022-08-07T06:31:44;4.18;;;3.78;;
21352;SDS011;10834;52.268;6.770;2022-08-07T06:34:30;4.15;;;3.83;;
21352;SDS011;10834;52.268;6.770;2022-08-07T06:37:16;4.03;;;3.30;;
21352;SDS011;10834;52.268;6.770;2022-08-07T06:40:03;3.80;;;3.40;;
21352;SDS011;10834;52.268;6.770;2022-08-07T06:42:49;3.72;;;3.33;;
21352;SDS011;10834;52.268;6.770;2022-08-07T06:45:37;3.92;;;3.63;;
21352;SDS011;10834;52.268;6.770;2022-08-07T06:48:23;3.53;;;3.22;;
21352;SDS011;10834;52.268;6.770;2022-08-07T06:51:11;4.13;;;3.72;;
21352;SDS011;10834;52.268;6.770;2022-08-07T06:54:01;3.80;;;3.50;;
21352;SDS011;10834;52.268;6.770;2022-08-07T06:56:49;3.95;;;3.45;;
21352;SDS011;10834;52.268;6.770;2022-08-07T06:59:39;4.10;;;3.80;;
21352;SDS011;10834;52.268;6.770;2022-08-07T07:02:26;3.88;;;3.58;;
21352;SDS011;10834;52.268;6.770;2022-08-07T07:05:13;3.92;;;3.55;;
21352;SDS011;10834;52.268;6.770;2022-08-07T07:08:00;3.78;;;3.40;;
21352;SDS011;10834;52.268;6.770;2022-08-07T07:10:46;4.10;;;3.75;;
21352;SDS011;10834;52.268;6.770;2022-08-07T07:13:34;3.63;;;3.28;;
21352;SDS011;10834;52.268;6.770;2022-08-07T07:16:23;3.83;;;3.53;;
21352;SDS011;10834;52.268;6.770;2022-08-07T07:19:11;3.75;;;3.45;;
21352;SDS011;10834;52.268;6.770;2022-08-07T07:22:02;3.70;;;3.40;;
21352;SDS011;10834;52.268;6.770;2022-08-07T07:24:49;3.88;;;3.47;;
21352;SDS011;10834;52.268;6.770;2022-08-07T07:27:39;3.75;;;3.45;;
21352;SDS011;10834;52.268;6.770;2022-08-07T07:30:41;4.28;;;3.88;;
21352;SDS011;10834;52.268;6.770;2022-08-07T07:33:31;3.90;;;3.60;;
21352;SDS011;10834;52.268;6.770;2022-08-07T07:36:20;3.58;;;3.28;;
21352;SDS011;10834;52.268;6.770;2022-08-07T07:39:08;3.55;;;3.25;;
21352;SDS011;10834;52.268;6.770;2022-08-07T07:41:56;2.95;;;2.75;;
21352;SDS011;10834;52.268;6.770;2022-08-07T07:44:44;2.92;;;2.72;;
21352;SDS011;10834;52.268;6.770;2022-08-07T07:47:32;4.03;;;3.55;;
21352;SDS011;10834;52.268;6.770;2022-08-07T07:50:21;3.67;;;3.38;;
21352;SDS011;10834;52.268;6.770;2022-08-07T07:53:09;3.38;;;2.95;;
21352;SDS011;10834;52.268;6.770;2022-08-07T07:55:57;4.13;;;3.38;;
21352;SDS011;10834;52.268;6.770;2022-08-07T07:58:44;3.70;;;3.42;;
21352;SDS011;10834;52.268;6.770;2022-08-07T08:01:31;3.72;;;3.42;;
21352;SDS011;10834;52.268;6.770;2022-08-07T08:04:18;5.03;;;3.45;;
21352;SDS011;10834;52.268;6.770;2022-08-07T08:07:06;3.75;;;3.20;;
21352;SDS011;10834;52.268;6.770;2022-08-07T08:09:53;3.28;;;2.97;;
21352;SDS011;10834;52.268;6.770;2022-08-07T08:12:40;2.85;;;2.65;;
21352;SDS011;10834;52.268;6.770;2022-08-07T08:15:26;3.40;;;3.10;;
21352;SDS011;10834;52.268;6.770;2022-08-07T08:18:15;3.78;;;3.30;;
21352;SDS011;10834;52.268;6.770;2022-08-07T08:21:02;3.92;;;3.60;;
21352;SDS011;10834;52.268;6.770;2022-08-07T08:23:49;3.42;;;3.13;;
21352;SDS011;10834;52.268;6.770;2022-08-07T08:26:54;3.20;;;2.90;;
21352;SDS011;10834;52.268;6.770;2022-08-07T08:29:50;3.45;;;3.15;;
21352;SDS011;10834;52.268;6.770;2022-08-07T08:32:42;2.65;;;2.45;;
21352;SDS011;10834;52.268;6.770;2022-08-07T08:35:32;3.58;;;3.25;;
21352;SDS011;10834;52.268;6.770;2022-08-07T08:38:24;3.30;;;3.00;;
21352;SDS011;10834;52.268;6.770;2022-08-07T08:45:04;3.40;;;3.10;;
21352;SDS011;10834;52.268;6.770;2022-08-07T08:48:10;3.05;;;2.75;;
21352;SDS011;10834;52.268;6.770;2022-08-07T08:51:27;2.90;;;2.70;;
21352;SDS011;10834;52.268;6.770;2022-08-07T08:54:31;3.22;;;3.03;;
21352;SDS011;10834;52.268;6.770;2022-08-07T08:57:45;3.30;;;3.08;;
21352;SDS011;10834;52.268;6.770;2022-08-07T09:00:47;3.17;;;2.97;;
21352;SDS011;10834;52.268;6.770;2022-08-07T09:07:02;3.03;;;2.83;;
21352;SDS011;10834;52.268;6.770;2022-08-07T09:28:38;3.20;;;2.90;;
21352;SDS011;10834;52.268;6.770;2022-08-07T09:31:44;2.40;;;2.20;;
21352;SDS011;10834;52.268;6.770;2022-08-07T09:38:18;2.67;;;2.47;;
21352;SDS011;10834;52.268;6.770;2022-08-07T09:53:19;2.55;;;2.35;;
21352;SDS011;10834;52.268;6.770;2022-08-07T09:59:40;2.85;;;2.65;;
21352;SDS011;10834;52.268;6.770;2022-08-07T10:12:44;2.40;;;2.20;;
21352;SDS011;10834;52.268;6.770;2022-08-07T10:18:41;4.13;;;2.42;;
21352;SDS011;10834;52.268;6.770;2022-08-07T10:22:06;2.65;;;2.45;;
21352;SDS011;10834;52.268;6.770;2022-08-07T10:37:42;2.92;;;2.63;;
21352;SDS011;10834;52.268;6.770;2022-08-07T10:40:47;2.50;;;1.80;;
21352;SDS011;10834;52.268;6.770;2022-08-07T10:43:53;1.90;;;1.80;;
21352;SDS011;10834;52.268;6.770;2022-08-07T10:46:52;2.47;;;2.28;;
21352;SDS011;10834;52.268;6.770;2022-08-07T10:49:43;2.20;;;2.00;;
21352;SDS011;10834;52.268;6.770;2022-08-07T11:02:10;1.45;;;1.35;;
21352;SDS011;10834;52.268;6.770;2022-08-07T11:08:31;2.10;;;1.90;;
21352;SDS011;10834;52.268;6.770;2022-08-07T11:11:46;1.80;;;1.70;;
21352;SDS011;10834;52.268;6.770;2022-08-07T11:14:38;2.10;;;1.90;;
21352;SDS011;10834;52.268;6.770;2022-08-07T11:17:29;1.95;;;1.85;;
21352;SDS011;10834;52.268;6.770;2022-08-07T11:20:24;2.10;;;1.73;;
21352;SDS011;10834;52.268;6.770;2022-08-07T11:23:23;2.17;;;1.73;;
21352;SDS011;10834;52.268;6.770;2022-08-07T11:27:01;1.40;;;1.30;;
21352;SDS011;10834;52.268;6.770;2022-08-07T11:32:17;1.70;;;1.60;;
21352;SDS011;10834;52.268;6.770;2022-08-07T11:35:14;2.30;;;1.50;;
21352;SDS011;10834;52.268;6.770;2022-08-07T11:38:16;1.70;;;1.45;;
21352;SDS011;10834;52.268;6.770;2022-08-07T11:41:15;2.13;;;1.80;;
21352;SDS011;10834;52.268;6.770;2022-08-07T11:44:17;1.60;;;1.50;;
21352;SDS011;10834;52.268;6.770;2022-08-07T11:50:43;1.65;;;1.55;;
21352;SDS011;10834;52.268;6.770;2022-08-07T11:57:21;1.70;;;1.60;;
21352;SDS011;10834;52.268;6.770;2022-08-07T12:06:45;1.98;;;1.83;;
21352;SDS011;10834;52.268;6.770;2022-08-07T12:13:18;1.60;;;1.50;;
21352;SDS011;10834;52.268;6.770;2022-08-07T12:16:10;1.70;;;1.60;;
21352;SDS011;10834;52.268;6.770;2022-08-07T12:25:47;1.40;;;1.30;;
21352;SDS011;10834;52.268;6.770;2022-08-07T12:28:51;1.50;;;1.40;;
21352;SDS011;10834;52.268;6.770;2022-08-07T12:31:57;1.65;;;1.52;;
21352;SDS011;10834;52.268;6.770;2022-08-07T12:34:49;1.42;;;1.33;;
21352;SDS011;10834;52.268;6.770;2022-08-07T12:37:37;1.77;;;1.50;;
21352;SDS011;10834;52.268;6.770;2022-08-07T12:40:27;1.60;;;1.50;;
21352;SDS011;10834;52.268;6.770;2022-08-07T12:43:21;1.60;;;1.50;;
21352;SDS011;10834;52.268;6.770;2022-08-07T12:49:32;2.25;;;1.60;;
21352;SDS011;10834;52.268;6.770;2022-08-07T12:52:40;1.60;;;1.50;;
21352;SDS011;10834;52.268;6.770;2022-08-07T12:58:39;1.70;;;1.60;;
21352;SDS011;10834;52.268;6.770;2022-08-07T13:01:41;1.48;;;1.38;;
21352;SDS011;10834;52.268;6.770;2022-08-07T13:19:59;1.90;;;1.80;;
21352;SDS011;10834;52.268;6.770;2022-08-07T13:23:01;2.08;;;1.70;;
21352;SDS011;10834;52.268;6.770;2022-08-07T13:29:14;2.38;;;1.40;;
21352;SDS011;10834;52.268;6.770;2022-08-07T13:35:26;2.33;;;2.05;;
21352;SDS011;10834;52.268;6.770;2022-08-07T13:44:10;1.90;;;1.80;;
21352;SDS011;10834;52.268;6.770;2022-08-07T13:46:57;2.20;;;1.90;;
21352;SDS011;10834;52.268;6.770;2022-08-07T13:49:46;2.20;;;2.05;;
21352;SDS011;10834;52.268;6.770;2022-08-07T13:52:35;2.40;;;2.03;;
21352;SDS011;10834;52.268;6.770;2022-08-07T13:55:25;2.17;;;2.08;;
21352;SDS011;10834;52.268;6.770;2022-08-07T13:58:13;3.90;;;2.65;;
21352;SDS011;10834;52.268;6.770;2022-08-07T14:01:19;3.22;;;1.88;;
21352;SDS011;10834;52.268;6.770;2022-08-07T14:04:08;4.25;;;2.08;;
21352;SDS011;10834;52.268;6.770;2022-08-07T14:06:57;6.03;;;2.53;;
21352;SDS011;10834;52.268;6.770;2022-08-07T14:09:44;3.05;;;2.38;;
21352;SDS011;10834;52.268;6.770;2022-08-07T14:12:35;3.90;;;2.65;;
21352;SDS011;10834;52.268;6.770;2022-08-07T14:15:42;2.00;;;1.90;;
21352;SDS011;10834;52.268;6.770;2022-08-07T14:18:38;3.33;;;2.28;;
21352;SDS011;10834;52.268;6.770;2022-08-07T14:21:31;2.55;;;2.33;;
21352;SDS011;10834;52.268;6.770;2022-08-07T14:24:38;2.50;;;2.30;;
21352;SDS011;10834;52.268;6.770;2022-08-07T14:27:33;3.88;;;2.42;;
21352;SDS011;10834;52.268;6.770;2022-08-07T14:30:22;2.95;;;2.65;;
21352;SDS011;10834;52.268;6.770;2022-08-07T14:33:09;2.90;;;2.28;;
21352;SDS011;10834;52.268;6.770;2022-08-07T14:35:58;2.70;;;2.50;;
21352;SDS011;10834;52.268;6.770;2022-08-07T14:38:45;2.50;;;2.30;;
21352;SDS011;10834;52.268;6.770;2022-08-07T14:41:33;3.80;;;2.08;;
21352;SDS011;10834;52.268;6.770;2022-08-07T14:44:24;2.63;;;2.13;;
21352;SDS011;10834;52.268;6.770;2022-08-07T14:47:12;2.83;;;2.58;;
21352;SDS011;10834;52.268;6.770;2022-08-07T14:50:03;3.35;;;2.15;;
21352;SDS011;10834;52.268;6.770;2022-08-07T14:52:52;2.47;;;2.10;;
21352;SDS011;10834;52.268;6.770;2022-08-07T14:55:40;2.85;;;2.65;;
21352;SDS011;10834;52.268;6.770;2022-08-07T14:58:30;7.53;;;3.63;;
21352;SDS011;10834;52.268;6.770;2022-08-07T15:01:23;2.60;;;2.38;;
21352;SDS011;10834;52.268;6.770;2022-08-07T15:04:12;2.63;;;2.10;;
21352;SDS011;10834;52.268;6.770;2022-08-07T15:06:59;2.58;;;2.38;;
21352;SDS011;10834;52.268;6.770;2022-08-07T15:09:45;2.50;;;2.30;;
21352;SDS011;10834;52.268;6.770;2022-08-07T15:12:34;2.78;;;2.58;;
21352;SDS011;10834;52.268;6.770;2022-08-07T15:15:31;2.67;;;2.25;;
21352;SDS011;10834;52.268;6.770;2022-08-07T15:18:34;2.25;;;2.05;;
21352;SDS011;10834;52.268;6.770;2022-08-07T15:21:23;4.05;;;2.38;;
21352;SDS011;10834;52.268;6.770;2022-08-07T15:24:21;2.45;;;2.25;;
21352;SDS011;10834;52.268;6.770;2022-08-07T15:27:11;2.65;;;2.45;;
21352;SDS011;10834;52.268;6.770;2022-08-07T15:30:07;2.50;;;2.30;;
21352;SDS011;10834;52.268;6.770;2022-08-07T15:32:54;2.60;;;2.40;;
21352;SDS011;10834;52.268;6.770;2022-08-07T15:35:41;2.60;;;2.40;;
21352;SDS011;10834;52.268;6.770;2022-08-07T15:38:34;3.20;;;2.30;;
21352;SDS011;10834;52.268;6.770;2022-08-07T15:41:23;2.83;;;2.60;;
21352;SDS011;10834;52.268;6.770;2022-08-07T15:44:13;6.72;;;2.38;;
21352;SDS011;10834;52.268;6.770;2022-08-07T15:47:03;2.50;;;2.30;;
21352;SDS011;10834;52.268;6.770;2022-08-07T15:49:51;2.60;;;2.40;;
21352;SDS011;10834;52.268;6.770;2022-08-07T15:52:40;3.08;;;2.78;;
21352;SDS011;10834;52.268;6.770;2022-08-07T15:55:29;7.20;;;3.45;;
21352;SDS011;10834;52.268;6.770;2022-08-07T15:58:16;3.60;;;2.72;;
21352;SDS011;10834;52.268;6.770;2022-08-07T16:01:11;3.42;;;3.00;;
21352;SDS011;10834;52.268;6.770;2022-08-07T16:04:07;3.47;;;3.17;;
21352;SDS011;10834;52.268;6.770;2022-08-07T16:06:57;3.22;;;2.92;;
21352;SDS011;10834;52.268;6.770;2022-08-07T16:09:49;5.70;;;3.20;;
21352;SDS011;10834;52.268;6.770;2022-08-07T16:12:48;3.75;;;3.38;;
21352;SDS011;10834;52.268;6.770;2022-08-07T16:22:10;4.55;;;3.25;;
21352;SDS011;10834;52.268;6.770;2022-08-07T16:28:18;3.33;;;2.90;;
21352;SDS011;10834;52.268;6.770;2022-08-07T16:59:38;2.20;;;2.00;;
21352;SDS011;10834;52.268;6.770;2022-08-07T17:02:38;2.00;;;1.85;;
21352;SDS011;10834;52.268;6.770;2022-08-07T17:11:56;1.83;;;1.73;;
21352;SDS011;10834;52.268;6.770;2022-08-07T17:18:13;2.20;;;2.00;;
21352;SDS011;10834;52.268;6.770;2022-08-07T17:21:18;2.28;;;2.08;;
21352;SDS011;10834;52.268;6.770;2022-08-07T17:24:22;2.20;;;2.10;;
21352;SDS011;10834;52.268;6.770;2022-08-07T17:27:50;1.90;;;1.80;;
21352;SDS011;10834;52.268;6.770;2022-08-07T17:31:24;1.70;;;1.60;;
21352;SDS011;10834;52.268;6.770;2022-08-07T17:34:12;2.80;;;1.77;;
21352;SDS011;10834;52.268;6.770;2022-08-07T17:40:40;2.85;;;2.00;;
21352;SDS011;10834;52.268;6.770;2022-08-07T17:43:37;2.50;;;1.92;;
21352;SDS011;10834;52.268;6.770;2022-08-07T17:46:28;1.88;;;1.73;;
21352;SDS011;10834;52.268;6.770;2022-08-07T17:52:37;2.28;;;1.80;;
21352;SDS011;10834;52.268;6.770;2022-08-07T17:55:31;1.77;;;1.67;;
21352;SDS011;10834;52.268;6.770;2022-08-07T17:58:34;1.65;;;1.55;;
21352;SDS011;10834;52.268;6.770;2022-08-07T18:01:39;2.15;;;1.92;;
21352;SDS011;10834;52.268;6.770;2022-08-07T18:04:41;1.80;;;1.70;;
21352;SDS011;10834;52.268;6.770;2022-08-07T18:07:43;2.35;;;2.15;;
21352;SDS011;10834;52.268;6.770;2022-08-07T18:16:53;1.80;;;1.70;;
21352;SDS011;10834;52.268;6.770;2022-08-07T18:20:13;1.70;;;1.60;;
21352;SDS011;10834;52.268;6.770;2022-08-07T18:23:04;1.95;;;1.83;;
21352;SDS011;10834;52.268;6.770;2022-08-07T18:26:00;1.83;;;1.73;;
21352;SDS011;10834;52.268;6.770;2022-08-07T18:29:01;2.53;;;2.33;;
21352;SDS011;10834;52.268;6.770;2022-08-07T18:35:12;3.92;;;2.15;;
21352;SDS011;10834;52.268;6.770;2022-08-07T18:41:21;2.38;;;2.10;;
21352;SDS011;10834;52.268;6.770;2022-08-07T18:57:36;2.00;;;1.90;;
21352;SDS011;10834;52.268;6.770;2022-08-07T19:03:52;6.25;;;2.17;;
21352;SDS011;10834;52.268;6.770;2022-08-07T19:07:04;2.55;;;2.38;;
21352;SDS011;10834;52.268;6.770;2022-08-07T19:09:58;4.07;;;2.55;;
21352;SDS011;10834;52.268;6.770;2022-08-07T19:15:59;2.67;;;2.47;;
21352;SDS011;10834;52.268;6.770;2022-08-07T19:18:57;3.00;;;2.20;;
21352;SDS011;10834;52.268;6.770;2022-08-07T19:21:57;3.47;;;2.65;;
21352;SDS011;10834;52.268;6.770;2022-08-07T19:24:48;2.60;;;2.40;;
21352;SDS011;10834;52.268;6.770;2022-08-07T19:27:37;2.50;;;2.35;;
21352;SDS011;10834;52.268;6.770;2022-08-07T19:30:24;2.58;;;2.38;;
21352;SDS011;10834;52.268;6.770;2022-08-07T19:33:17;2.70;;;2.50;;
21352;SDS011;10834;52.268;6.770;2022-08-07T19:36:04;2.50;;;2.30;;
21352;SDS011;10834;52.268;6.770;2022-08-07T19:38:56;2.35;;;2.15;;
21352;SDS011;10834;52.268;6.770;2022-08-07T19:41:45;2.40;;;2.17;;
21352;SDS011;10834;52.268;6.770;2022-08-07T19:44:37;2.72;;;2.53;;
21352;SDS011;10834;52.268;6.770;2022-08-07T19:47:28;2.97;;;2.40;;
21352;SDS011;10834;52.268;6.770;2022-08-07T19:50:18;2.20;;;2.00;;
21352;SDS011;10834;52.268;6.770;2022-08-07T19:53:12;3.03;;;2.33;;
21352;SDS011;10834;52.268;6.770;2022-08-07T19:55:59;2.95;;;2.75;;
21352;SDS011;10834;52.268;6.770;2022-08-07T19:58:53;2.40;;;2.20;;
21352;SDS011;10834;52.268;6.770;2022-08-07T20:01:45;2.33;;;2.13;;
21352;SDS011;10834;52.268;6.770;2022-08-07T20:04:33;2.50;;;2.30;;
21352;SDS011;10834;52.268;6.770;2022-08-07T20:07:24;2.80;;;2.60;;
21352;SDS011;10834;52.268;6.770;2022-08-07T20:10:15;2.30;;;2.10;;
21352;SDS011;10834;52.268;6.770;2022-08-07T20:13:05;1.98;;;1.88;;
21352;SDS011;10834;52.268;6.770;2022-08-07T20:15:53;2.55;;;2.40;;
21352;SDS011;10834;52.268;6.770;2022-08-07T20:18:41;2.38;;;2.17;;
21352;SDS011;10834;52.268;6.770;2022-08-07T20:21:30;2.40;;;2.25;;
21352;SDS011;10834;52.268;6.770;2022-08-07T20:24:21;2.40;;;2.20;;
21352;SDS011;10834;52.268;6.770;2022-08-07T20:27:11;3.00;;;2.15;;
21352;SDS011;10834;52.268;6.770;2022-08-07T20:30:00;3.40;;;2.40;;
21352;SDS011;10834;52.268;6.770;2022-08-07T20:32:47;2.55;;;2.35;;
21352;SDS011;10834;52.268;6.770;2022-08-07T20:35:42;2.30;;;2.10;;
21352;SDS011;10834;52.268;6.770;2022-08-07T20:38:31;3.15;;;2.35;;
21352;SDS011;10834;52.268;6.770;2022-08-07T20:41:21;2.50;;;2.30;;
21352;SDS011;10834;52.268;6.770;2022-08-07T20:44:15;4.30;;;2.38;;
21352;SDS011;10834;52.268;6.770;2022-08-07T20:47:04;2.20;;;2.10;;
21352;SDS011;10834;52.268;6.770;2022-08-07T20:49:52;2.67;;;2.40;;
21352;SDS011;10834;52.268;6.770;2022-08-07T20:52:40;2.55;;;2.00;;
21352;SDS011;10834;52.268;6.770;2022-08-07T20:55:26;2.30;;;2.15;;
21352;SDS011;10834;52.268;6.770;2022-08-07T20:58:14;2.72;;;2.53;;
21352;SDS011;10834;52.268;6.770;2022-08-07T21:01:06;2.60;;;2.40;;
21352;SDS011;10834;52.268;6.770;2022-08-07T21:03:58;2.55;;;2.35;;
21352;SDS011;10834;52.268;6.770;2022-08-07T21:06:44;2.53;;;2.40;;
21352;SDS011;10834;52.268;6.770;2022-08-07T21:09:34;2.28;;;2.10;;
21352;SDS011;10834;52.268;6.770;2022-08-07T21:12:23;2.88;;;2.67;;
21352;SDS011;10834;52.268;6.770;2022-08-07T21:15:12;2.25;;;2.15;;
21352;SDS011;10834;52.268;6.770;2022-08-07T21:18:00;2.38;;;2.28;;
21352;SDS011;10834;52.268;6.770;2022-08-07T21:20:52;2.15;;;2.05;;